TimeCET,TemperatureF,Dew PointF,Humidity,Sea Level PressureIn,VisibilityMPH,Wind Direction,Wind SpeedMPH,Gust SpeedMPH,PrecipitationIn,Events,Conditions,WindDirDegrees,DateUTC
12:00 AM,41.0,32.0,70,30.15,6.2,SW,9.2,-,N/A,,Unknown,220,2013-02-26 23:00:00
12:30 AM,41.0,32.0,70,30.15,6.2,SW,8.1,-,N/A,,Unknown,220,2013-02-26 23:30:00
1:00 AM,40,32,63,30.17,22,SW,5.8,,,,Clear,230,2013-02-27 00:00:00
1:00 AM,41.0,32.0,70,30.15,6.2,SW,5.8,-,N/A,,Unknown,230,2013-02-27 00:00:00
1:30 AM,39.2,30.2,70,30.15,6.2,SW,6.9,-,N/A,,Unknown,220,2013-02-27 00:30:00
2:00 AM,41.0,30.2,65,30.15,6.2,SW,6.9,-,N/A,,Unknown,220,2013-02-27 01:00:00
2:30 AM,41.0,30.2,65,30.15,6.2,SW,6.9,-,N/A,,Partly Cloudy,220,2013-02-27 01:30:00
3:00 AM,41.0,30.2,65,30.15,6.2,SW,10.4,-,N/A,,Partly Cloudy,220,2013-02-27 02:00:00
3:30 AM,41.0,30.2,65,30.15,6.2,SW,11.5,-,N/A,,Partly Cloudy,230,2013-02-27 02:30:00
4:00 AM,41.0,30.2,65,30.15,6.2,SW,11.5,-,N/A,,Partly Cloudy,230,2013-02-27 03:00:00
4:30 AM,39.2,28.4,65,30.15,6.2,SW,6.9,-,N/A,,Partly Cloudy,220,2013-02-27 03:30:00
5:00 AM,41.0,28.4,61,30.15,6.2,SW,10.4,-,N/A,,Partly Cloudy,220,2013-02-27 04:00:00
5:30 AM,41.0,28.4,61,30.15,6.2,SW,11.5,-,N/A,,Partly Cloudy,230,2013-02-27 04:30:00
6:00 AM,41.0,28.4,61,30.15,-9999.0,WSW,12.7,-,N/A,,Clear,240,2013-02-27 05:00:00
6:30 AM,41.0,30.2,65,30.15,6.2,SW,11.5,-,N/A,,Partly Cloudy,220,2013-02-27 05:30:00
7:00 AM,41,29,51,30.17,25,SW,9.2,,,,Scattered Clouds,230,2013-02-27 06:00:00
7:00 AM,41.0,30.2,65,30.15,6.2,SW,5.8,-,N/A,,Partly Cloudy,230,2013-02-27 06:00:00
7:30 AM,41.0,30.2,65,30.15,6.2,SSW,6.9,-,N/A,,Partly Cloudy,210,2013-02-27 06:30:00
8:00 AM,42.8,30.2,61,30.18,6.2,SW,8.1,-,N/A,,Partly Cloudy,220,2013-02-27 07:00:00
8:30 AM,44.6,30.2,57,30.18,6.2,SW,9.2,-,N/A,,Partly Cloudy,220,2013-02-27 07:30:00
9:00 AM,46.4,32.0,57,30.18,6.2,SW,9.2,-,N/A,,Partly Cloudy,230,2013-02-27 08:00:00
9:30 AM,48.2,32.0,54,30.18,6.2,SW,9.2,-,N/A,,Scattered Clouds,220,2013-02-27 08:30:00
10:00 AM,51.8,35.6,54,30.18,6.2,SSW,8.1,-,N/A,,Scattered Clouds,210,2013-02-27 09:00:00
10:30 AM,53.6,35.6,51,30.18,6.2,SW,4.6,-,N/A,,Scattered Clouds,220,2013-02-27 09:30:00
11:00 AM,55.4,37.4,51,30.18,6.2,Variable,3.5,-,N/A,,Scattered Clouds,0,2013-02-27 10:00:00
11:30 AM,55.4,33.8,44,30.18,6.2,NNW,8.1,-,N/A,,Scattered Clouds,330,2013-02-27 10:30:00
12:00 PM,57.2,35.6,44,30.18,6.2,North,8.1,-,N/A,,Scattered Clouds,360,2013-02-27 11:00:00
12:30 PM,55.4,33.8,44,30.18,6.2,North,6.9,-,N/A,,Scattered Clouds,350,2013-02-27 11:30:00
1:00 PM,56,35,34,30.19,37,NNE,6.9,,,,Clear,20,2013-02-27 12:00:00
1:08 PM,55.4,33.8,44,30.18,6.2,Variable,5.8,26.5,N/A,,Scattered Clouds,0,2013-02-27 12:08:00
1:30 PM,57.2,37.4,48,30.15,6.2,NE,8.1,-,N/A,,Scattered Clouds,50,2013-02-27 12:30:00
2:00 PM,55.4,39.2,54,30.15,6.2,NNE,10.4,-,N/A,,Scattered Clouds,30,2013-02-27 13:00:00
2:30 PM,53.6,37.4,54,30.15,6.2,ENE,8.1,-,N/A,,Scattered Clouds,60,2013-02-27 13:30:00
3:00 PM,53.6,37.4,54,30.15,6.2,ENE,4.6,-,N/A,,Scattered Clouds,60,2013-02-27 14:00:00
3:30 PM,55.4,37.4,51,30.15,6.2,ENE,4.6,-,N/A,,Scattered Clouds,70,2013-02-27 14:30:00
4:00 PM,55.4,37.4,51,30.15,6.2,East,8.1,-,N/A,,Scattered Clouds,90,2013-02-27 15:00:00
4:30 PM,55.4,37.4,51,30.15,6.2,East,5.8,-,N/A,,Scattered Clouds,100,2013-02-27 15:30:00
5:00 PM,51.8,35.6,54,30.15,6.2,ESE,5.8,-,N/A,,Scattered Clouds,120,2013-02-27 16:00:00
6:00 PM,50.0,35.6,58,30.18,6.2,Variable,2.3,-,N/A,,Partly Cloudy,0,2013-02-27 17:00:00
7:00 PM,44,36,64,30.20,19,WNW,2.3,,,,Scattered Clouds,290,2013-02-27 18:00:00
7:00 PM,44.6,35.6,71,30.18,6.2,Variable,3.5,-,N/A,,Partly Cloudy,0,2013-02-27 18:00:00
7:30 PM,44.6,35.6,71,30.18,6.2,Calm,Calm,-,N/A,,Partly Cloudy,0,2013-02-27 18:30:00
8:00 PM,41.0,35.6,81,30.18,6.2,Calm,Calm,-,N/A,,Partly Cloudy,0,2013-02-27 19:00:00
8:30 PM,41.0,35.6,81,30.18,6.2,Calm,Calm,-,N/A,,Partly Cloudy,0,2013-02-27 19:30:00
9:00 PM,39.2,35.6,87,30.18,6.2,SW,3.5,-,N/A,,Partly Cloudy,220,2013-02-27 20:00:00
9:30 PM,42.8,37.4,81,30.21,6.2,SW,9.2,-,N/A,,Partly Cloudy,220,2013-02-27 20:30:00
10:00 PM,42.8,37.4,81,30.21,6.2,SW,5.8,-,N/A,,Partly Cloudy,230,2013-02-27 21:00:00
10:30 PM,42.8,35.6,76,30.21,6.2,Variable,2.3,-,N/A,,Scattered Clouds,0,2013-02-27 21:30:00
11:00 PM,44.6,35.6,71,30.21,6.2,SW,4.6,-,N/A,,Mostly Cloudy,220,2013-02-27 22:00:00
11:30 PM,44.6,37.4,76,30.21,6.2,SW,6.9,-,N/A,,Scattered Clouds,230,2013-02-27 22:30:00